BENVENUTI AL 154° GRUPPO VIRTUALE
  • Home
  • Missioni DCS
  • Missioni Caucaso

METAR & TAF

[Source: ADDS]
METAR
LIPL 301155Z 19003KT 9999 SCT080 29/21 Q1012 RMK BKN SCT140 VIS MIN 9999 WIND THR31 23005KT WIND THR13 19004KT BLU =
LIPL 301100Z 3012/3021 32005KT 9999 SCT080 TEMPO 3015/3018 5000 SHRA FEW020CB SCT030
TAF
LIPL 301100Z 3012/3021 32005KT 9999 SCT080 TEMPO 3015/3018 5000 SHRA FEW020CB SCT030 =

Notice: Undefined index: sun in /web/htdocs/www.154gruppovirtuale.it/home/modules/mod_wx/tmpl/default.php on line 13

Official Tools

CombatFlite Logo  
 
   

Network

Simulation Platform